Highland Falls, New York
Current Conditions -  °F | °C
As of 1:45 PM on Wednesday 26 Nov 2014 (Local Time) from KSWF Reporting Station
Moderate Snow Moderate Snow  
Wind Chill: 24°   Ceiling: 300
Heat Index: 32°   Visibility: 0.25mi
Dew Point: 32°   Wind: 9mph
Humidity: 100%   Direction: 30°NNE
Pressure: 30.01"   Gusts: NA
Location:  41.37°N, 73.97°W
Report Text: KSWF 261845Z 03008KT 1/4SM R09/3000FT SN OVC003 00/00 A3001
Loading
Personal Weather Stations






























Interactive Weather Map New forecast layout! Learn more

10-Day Weather Forecast

Advertisements
Track Severe Weather on mobile